Time;durP1;ratioP1;P1;durP2;ratioP2;P2;SDS_P1;SDS_P2;PMS_P1;PMS_P2;Temp;Humidity;BMP_temperature;BMP_pressure;BME280_temperature;BME280_humidity;BME280_pressure;Samples;Min_cycle;Max_cycle;Signal;HPM_P1;HPM_P2
2023/01/21 00:00:55;;;;;;;5.73;3.80;;;0.30;99.90;;;;;;5092801;28;20458;-76
2023/01/21 00:03:22;;;;;;;4.00;3.70;;;0.20;99.90;;;;;;5092422;28;20451;-75
2023/01/21 00:05:50;;;;;;;5.40;3.90;;;0.30;99.90;;;;;;5093167;28;20445;-76
2023/01/21 00:08:17;;;;;;;8.53;3.67;;;0.20;99.90;;;;;;5091529;28;20485;-73
2023/01/21 00:10:44;;;;;;;7.20;3.80;;;0.10;1.00;;;;;;5092781;28;20451;-76
2023/01/21 00:13:11;;;;;;;5.70;4.20;;;0.10;1.00;;;;;;5092601;28;20462;-75
2023/01/21 00:15:37;;;;;;;4.13;3.67;;;0.20;1.00;;;;;;5092187;28;20457;-76
2023/01/21 00:18:04;;;;;;;4.70;3.33;;;0.30;1.00;;;;;;5092432;28;20459;-76
2023/01/21 00:20:31;;;;;;;6.27;4.07;;;0.60;1.00;;;;;;5091715;28;20452;-76
2023/01/21 00:22:59;;;;;;;3.27;3.07;;;0.60;1.00;;;;;;5092307;28;20965;-75
2023/01/21 00:25:26;;;;;;;5.43;4.93;;;0.70;99.90;;;;;;5092090;28;20457;-76
2023/01/21 00:27:53;;;;;;;4.30;2.77;;;0.60;99.90;;;;;;5092233;28;20893;-75
2023/01/21 00:30:20;;;;;;;4.40;3.93;;;0.70;99.90;;;;;;5091375;28;20954;-76
2023/01/21 00:32:47;;;;;;;4.50;4.10;;;0.70;99.90;;;;;;5092548;28;20448;-74
2023/01/21 00:35:14;;;;;;;10.73;4.80;;;0.70;99.90;;;;;;5092223;28;20911;-77
2023/01/21 00:37:41;;;;;;;5.40;4.40;;;0.80;75.90;;;;;;5091690;28;20454;-76
2023/01/21 00:40:10;;;;;;;4.33;3.13;;;0.60;53.50;;;;;;5091616;28;20460;-76
2023/01/21 00:42:37;;;;;;;6.73;4.07;;;0.50;99.90;;;;;;5092067;28;20454;-76
2023/01/21 00:45:04;;;;;;;4.83;3.70;;;0.70;99.90;;;;;;5092209;28;20483;-76
2023/01/21 00:47:31;;;;;;;3.13;2.03;;;0.60;99.90;;;;;;5091764;28;20455;-76
2023/01/21 00:49:58;;;;;;;8.83;4.90;;;0.50;99.90;;;;;;5091196;28;20475;-76
2023/01/21 00:52:25;;;;;;;6.90;3.40;;;0.50;99.90;;;;;;5091318;28;20454;-75
2023/01/21 00:54:51;;;;;;;5.17;3.70;;;0.50;99.90;;;;;;5092109;28;20451;-75
2023/01/21 00:57:20;;;;;;;8.10;4.90;;;0.50;99.90;;;;;;5091268;28;20460;-76
2023/01/21 00:59:46;;;;;;;4.73;2.93;;;0.30;99.90;;;;;;5091674;28;20490;-74
2023/01/21 01:02:13;;;;;;;10.90;4.40;;;0.30;1.00;;;;;;5092093;28;20467;-76
2023/01/21 01:04:40;;;;;;;5.57;4.50;;;0.20;1.00;;;;;;5091278;28;20543;-76
2023/01/21 01:07:07;;;;;;;10.03;5.33;;;0.30;1.00;;;;;;5091955;28;20450;-76
2023/01/21 01:09:34;;;;;;;5.53;3.43;;;0.30;99.90;;;;;;5090725;28;20480;-76
2023/01/21 01:12:01;;;;;;;5.60;3.23;;;0.40;99.90;;;;;;5090943;28;20454;-78
2023/01/21 01:14:29;;;;;;;6.53;4.67;;;0.20;1.00;;;;;;5090999;28;20446;-74
2023/01/21 01:16:56;;;;;;;4.47;2.90;;;0.00;1.00;;;;;;5091255;28;20454;-75
2023/01/21 01:19:22;;;;;;;5.10;2.97;;;0.10;58.70;;;;;;5084496;28;20456;-75
2023/01/21 01:21:49;;;;;;;5.17;2.97;;;0.00;99.90;;;;;;5085847;28;20454;-74
2023/01/21 01:24:16;;;;;;;5.73;3.80;;;0.20;99.90;;;;;;5081726;28;20450;-75
2023/01/21 01:26:43;;;;;;;4.47;3.80;;;-0.10;99.90;;;;;;5090187;28;20506;-74
2023/01/21 01:29:12;;;;;;;4.40;2.60;;;-0.10;1.00;;;;;;5083285;28;20482;-74
2023/01/21 01:31:40;;;;;;;6.97;4.27;;;-0.20;1.00;;;;;;5089751;28;20458;-74
2023/01/21 01:34:07;;;;;;;7.00;4.10;;;0.00;99.90;;;;;;5090991;28;20458;-74
2023/01/21 01:36:34;;;;;;;4.60;3.80;;;0.10;1.00;;;;;;5091135;28;20450;-74
2023/01/21 01:39:01;;;;;;;12.03;3.13;;;0.10;99.90;;;;;;5092199;28;20466;-74
2023/01/21 01:41:29;;;;;;;4.13;3.73;;;-0.10;99.90;;;;;;5091248;28;20450;-75
2023/01/21 01:43:58;;;;;;;4.37;3.40;;;0.10;1.00;;;;;;5089027;28;20492;-75
2023/01/21 01:46:27;;;;;;;3.57;3.27;;;-0.20;1.00;;;;;;5086616;28;20442;-74
2023/01/21 01:49:06;;;;;;;6.90;4.57;;;-0.30;99.90;;;;;;5092443;28;20481;-74
2023/01/21 01:51:41;;;;;;;7.40;3.73;;;-0.20;99.90;;;;;;5093693;28;20445;-74
2023/01/21 01:54:11;;;;;;;5.23;3.73;;;-0.40;99.90;;;;;;5095240;28;20442;-75
2023/01/21 01:56:40;;;;;;;5.70;3.90;;;-0.50;1.00;;;;;;5096145;28;20460;-74
2023/01/21 01:59:07;;;;;;;4.10;2.77;;;-0.50;1.00;;;;;;5098625;28;20454;-74
2023/01/21 02:01:34;;;;;;;3.87;3.50;;;-0.50;99.90;;;;;;5100262;28;20460;-74
2023/01/21 02:04:06;;;;;;;4.70;3.37;;;-0.40;99.90;;;;;;5101551;28;20511;-73
2023/01/21 02:06:34;;;;;;;4.23;3.40;;;-0.30;1.00;;;;;;5090461;28;20446;-74
2023/01/21 02:09:01;;;;;;;7.03;4.43;;;-0.40;1.00;;;;;;5102673;28;20660;-74
2023/01/21 02:11:27;;;;;;;7.73;4.27;;;-0.10;1.00;;;;;;5103600;28;20449;-74
2023/01/21 02:13:58;;;;;;;8.23;3.50;;;-0.30;84.50;;;;;;5106895;28;20529;-74
2023/01/21 02:16:54;;;;;;;6.50;4.53;;;-0.10;1.00;;;;;;5107427;28;20453;-75
2023/01/21 02:19:56;;;;;;;6.63;4.97;;;0.00;1.00;;;;;;5106807;28;20442;-74
2023/01/21 02:22:30;;;;;;;8.70;4.20;;;-0.10;99.90;;;;;;5120738;28;20444;-74
2023/01/21 02:25:26;;;;;;;3.90;3.60;;;-0.40;1.00;;;;;;5108645;28;20489;-74
2023/01/21 02:28:10;;;;;;;6.07;4.97;;;-0.50;1.00;;;;;;5107296;28;20453;-74
2023/01/21 02:31:06;;;;;;;10.20;3.90;;;-0.80;1.00;;;;;;5107620;28;20479;-74
2023/01/21 02:33:55;;;;;;;3.63;2.97;;;-1.00;99.90;;;;;;5078342;28;20460;-74
2023/01/21 02:36:37;;;;;;;2.87;2.57;;;-1.20;99.90;;;;;;5111516;28;20440;-74
2023/01/21 02:39:12;;;;;;;3.10;2.90;;;-1.30;1.00;;;;;;5097986;28;20440;-74
2023/01/21 02:41:49;;;;;;;3.03;2.60;;;-0.90;96.40;;;;;;5094935;28;20452;-75
2023/01/21 02:44:24;;;;;;;3.43;2.90;;;-0.80;1.00;;;;;;5095733;28;20469;-75
2023/01/21 02:46:58;;;;;;;7.13;4.57;;;-0.70;1.00;;;;;;5095064;28;20531;-74
2023/01/21 02:49:31;;;;;;;4.47;3.93;;;-0.80;1.00;;;;;;5090084;28;20469;-74
2023/01/21 02:51:58;;;;;;;4.93;2.97;;;-0.80;99.90;;;;;;5090101;28;20521;-74
2023/01/21 02:54:48;;;;;;;2.00;1.73;;;-1.00;99.90;;;;;;5089095;28;20448;-74
2023/01/21 02:57:19;;;;;;;2.93;2.67;;;-1.20;99.90;;;;;;5094937;28;20522;-74
2023/01/21 02:59:50;;;;;;;3.50;3.20;;;-1.20;1.00;;;;;;5094504;28;20441;-73
2023/01/21 03:02:29;;;;;;;5.90;3.57;;;-1.40;99.90;;;;;;5094079;28;20453;-70
2023/01/21 03:05:08;;;;;;;4.70;2.57;;;-1.30;1.00;;;;;;5085678;28;20943;-74
2023/01/21 03:07:41;;;;;;;15.33;4.13;;;-1.30;1.00;;;;;;5106792;28;20433;-74
2023/01/21 03:10:12;;;;;;;3.90;3.53;;;-1.20;99.90;;;;;;5102518;28;20472;-74
2023/01/21 03:12:48;;;;;;;11.33;4.67;;;-1.20;1.00;;;;;;5094154;28;20461;-74
2023/01/21 03:18:09;;;;;;;5.13;4.00;;;-1.40;99.90;;;;;;5091751;28;20843;-74
2023/01/21 03:20:41;;;;;;;6.70;4.73;;;-1.10;1.00;;;;;;5092813;28;21290;-74
2023/01/21 03:23:12;;;;;;;5.43;3.50;;;-1.00;1.00;;;;;;5093781;28;20441;-74
2023/01/21 03:25:41;;;;;;;5.33;3.17;;;-1.30;99.90;;;;;;5092826;28;20441;-74
2023/01/21 03:28:11;;;;;;;7.90;3.77;;;-1.20;1.00;;;;;;5093029;28;20456;-74
2023/01/21 03:30:43;;;;;;;4.63;4.23;;;-1.30;99.90;;;;;;5092337;28;20476;-74
2023/01/21 03:33:12;;;;;;;5.13;4.50;;;-1.10;99.90;;;;;;5093647;28;20441;-75
2023/01/21 03:35:45;;;;;;;4.77;3.30;;;-1.00;99.90;;;;;;5093293;28;20468;-74
2023/01/21 03:38:16;;;;;;;5.87;3.70;;;-0.90;86.00;;;;;;5092956;28;20441;-75
2023/01/21 03:40:48;;;;;;;5.83;3.30;;;-1.30;1.00;;;;;;5092896;28;20457;-75
2023/01/21 03:43:15;;;;;;;2.63;2.43;;;-1.50;1.00;;;;;;5093183;28;20464;-75
2023/01/21 03:45:47;;;;;;;8.10;4.10;;;-1.70;1.00;;;;;;5093134;28;20891;-75
2023/01/21 03:48:22;;;;;;;4.10;3.70;;;-1.50;99.90;;;;;;5093120;28;20438;-75
2023/01/21 03:50:56;;;;;;;3.37;3.03;;;-1.80;1.00;;;;;;5093084;28;20465;-74
2023/01/21 03:53:23;;;;;;;2.27;2.07;;;-2.10;1.00;;;;;;5088760;28;20437;-73
2023/01/21 03:55:50;;;;;;;2.60;2.27;;;-2.10;90.80;;;;;;5092968;28;20460;-74
2023/01/21 03:58:17;;;;;;;3.23;2.60;;;-2.10;1.00;;;;;;5083876;28;20449;-73
2023/01/21 04:00:45;;;;;;;7.30;3.83;;;-1.90;1.00;;;;;;5092661;28;20452;-75
2023/01/21 04:03:12;;;;;;;4.07;1.80;;;-1.80;99.90;;;;;;5092745;28;20457;-76
2023/01/21 04:05:39;;;;;;;6.87;3.40;;;-2.10;99.90;;;;;;5086383;28;20804;-74
2023/01/21 04:08:07;;;;;;;3.03;2.73;;;-2.00;1.00;;;;;;5093014;28;20471;-74
2023/01/21 04:10:33;;;;;;;5.23;3.60;;;-1.80;1.00;;;;;;5091712;28;20529;-74
2023/01/21 04:13:00;;;;;;;8.40;3.17;;;-1.80;99.90;;;;;;5087316;28;20454;-74
2023/01/21 04:15:27;;;;;;;3.50;2.63;;;-2.00;23.00;;;;;;5086596;28;20441;-74
2023/01/21 04:17:54;;;;;;;5.90;3.00;;;-2.20;1.00;;;;;;5085723;28;20446;-74
2023/01/21 04:20:21;;;;;;;4.30;4.00;;;-2.30;1.00;;;;;;5086135;28;20463;-74
2023/01/21 04:22:47;;;;;;;10.40;3.60;;;-2.40;54.30;;;;;;5092932;28;20456;-74
2023/01/21 04:25:16;;;;;;;3.00;2.70;;;-2.50;99.90;;;;;;5092678;28;20464;-74
2023/01/21 04:27:43;;;;;;;6.57;4.50;;;-2.20;14.60;;;;;;5092920;28;20445;-74
2023/01/21 04:30:11;;;;;;;2.60;1.90;;;-2.30;79.10;;;;;;5091763;28;20484;-74
2023/01/21 04:32:37;;;;;;;4.50;3.53;;;-2.10;1.00;;;;;;5092048;28;20449;-74
2023/01/21 04:35:05;;;;;;;7.43;4.23;;;-1.90;1.00;;;;;;5092487;28;20456;-74
2023/01/21 04:37:31;;;;;;;2.93;2.50;;;-1.70;1.00;;;;;;5091977;28;20437;-74
2023/01/21 04:39:58;;;;;;;6.20;2.90;;;-1.60;99.90;;;;;;5092067;28;20459;-74
2023/01/21 04:42:26;;;;;;;3.90;2.53;;;-1.80;1.00;;;;;;5091854;28;20453;-74
2023/01/21 04:44:53;;;;;;;4.23;3.43;;;-2.00;1.00;;;;;;5092175;28;20502;-73
2023/01/21 04:47:20;;;;;;;8.37;3.83;;;-2.10;99.90;;;;;;5091816;28;20451;-74
2023/01/21 04:49:47;;;;;;;2.63;2.43;;;-1.90;1.00;;;;;;5091774;28;20480;-73
2023/01/21 04:52:14;;;;;;;1.90;1.60;;;-2.10;99.90;;;;;;5092056;28;20532;-74
2023/01/21 04:54:41;;;;;;;4.67;2.33;;;-2.10;99.90;;;;;;5084199;28;20446;-73
2023/01/21 04:57:09;;;;;;;3.47;2.00;;;-2.20;1.00;;;;;;5091850;28;20453;-74
2023/01/21 04:59:37;;;;;;;5.23;3.80;;;-2.30;99.90;;;;;;5091086;28;20495;-74
2023/01/21 05:02:04;;;;;;;3.33;2.80;;;-2.20;99.90;;;;;;5091935;28;20452;-74
2023/01/21 05:04:32;;;;;;;3.70;2.17;;;-2.30;1.00;;;;;;5090538;28;20926;-74
2023/01/21 05:06:58;;;;;;;2.13;2.00;;;-2.40;99.90;;;;;;5091892;28;20450;-74
2023/01/21 05:09:26;;;;;;;6.63;4.40;;;-2.50;99.90;;;;;;5090231;28;20576;-75
2023/01/21 05:11:52;;;;;;;2.90;2.43;;;-2.70;99.90;;;;;;5091476;28;20453;-74
2023/01/21 05:14:19;;;;;;;3.87;3.07;;;-2.30;1.00;;;;;;5091079;28;20449;-74
2023/01/21 05:16:47;;;;;;;2.50;1.73;;;-2.10;1.00;;;;;;5091622;28;20444;-74
2023/01/21 05:19:14;;;;;;;3.10;2.90;;;-2.10;99.90;;;;;;5091145;28;20452;-75
2023/01/21 05:21:41;;;;;;;7.40;2.70;;;-2.00;1.00;;;;;;5104007;28;20455;-75
2023/01/21 05:24:08;;;;;;;4.17;2.87;;;-1.90;1.00;;;;;;5091958;28;20449;-74
2023/01/21 05:26:35;;;;;;;6.00;3.30;;;-1.70;1.00;;;;;;5090656;28;20449;-75
2023/01/21 05:29:02;;;;;;;4.17;3.10;;;-1.50;16.50;;;;;;5089479;28;20441;-75
2023/01/21 05:31:29;;;;;;;4.83;3.07;;;-1.60;99.90;;;;;;5083358;28;20496;-75
2023/01/21 05:33:58;;;;;;;2.63;2.40;;;-1.80;1.00;;;;;;5089611;28;20442;-75
2023/01/21 05:36:25;;;;;;;4.87;3.47;;;-2.00;99.90;;;;;;5090445;28;20445;-75
2023/01/21 05:38:51;;;;;;;3.17;2.50;;;-2.20;1.00;;;;;;5091090;28;20453;-75
2023/01/21 05:41:19;;;;;;;3.77;2.90;;;-2.50;99.90;;;;;;5090693;28;20446;-75
2023/01/21 05:43:45;;;;;;;3.43;2.57;;;-2.70;99.90;;;;;;5077839;28;20445;-75
2023/01/21 05:46:12;;;;;;;4.10;3.73;;;-2.60;1.00;;;;;;5082496;28;20484;-75
2023/01/21 05:48:39;;;;;;;4.93;3.47;;;-2.50;1.00;;;;;;5083448;28;20984;-75
2023/01/21 05:51:07;;;;;;;6.10;2.93;;;-2.40;1.00;;;;;;5091255;28;20829;-75
2023/01/21 05:53:34;;;;;;;5.40;3.00;;;-2.30;16.60;;;;;;5090489;28;20457;-75
2023/01/21 05:56:01;;;;;;;6.80;3.20;;;-2.20;1.00;;;;;;5090757;28;20489;-74
2023/01/21 05:58:28;;;;;;;3.13;2.43;;;-2.30;1.00;;;;;;5090233;28;20456;-75
2023/01/21 06:00:57;;;;;;;3.43;3.10;;;-2.20;99.90;;;;;;5091220;28;20459;-75
2023/01/21 06:03:24;;;;;;;5.40;2.80;;;-2.20;99.90;;;;;;5090586;28;20456;-74
2023/01/21 06:05:51;;;;;;;2.77;2.40;;;-2.10;99.90;;;;;;5093971;28;20469;-75
2023/01/21 06:08:19;;;;;;;3.50;3.20;;;-1.90;1.00;;;;;;5096942;28;20462;-71
2023/01/21 06:10:46;;;;;;;2.70;2.10;;;-1.70;27.80;;;;;;5097825;28;20484;-75
2023/01/21 06:13:14;;;;;;;5.43;3.57;;;-1.60;1.00;;;;;;5098221;28;20449;-75
2023/01/21 06:15:41;;;;;;;2.83;1.97;;;-1.50;1.00;;;;;;5097412;28;20452;-75
2023/01/21 06:18:08;;;;;;;3.10;2.70;;;-1.40;99.90;;;;;;5097983;28;20459;-75
2023/01/21 06:20:35;;;;;;;5.10;3.50;;;-1.20;1.00;;;;;;5097174;28;20445;-75
2023/01/21 06:23:03;;;;;;;11.63;4.97;;;-1.00;99.90;;;;;;5097927;28;20447;-75
2023/01/21 06:25:32;;;;;;;4.70;3.30;;;-1.00;1.00;;;;;;5096835;28;20964;-75
2023/01/21 06:28:00;;;;;;;6.20;5.07;;;-1.00;1.00;;;;;;5097578;28;20454;-75
2023/01/21 06:30:27;;;;;;;6.27;5.60;;;-1.00;99.90;;;;;;5096548;28;20480;-75
2023/01/21 06:32:54;;;;;;;8.87;3.87;;;-0.70;86.30;;;;;;5097453;28;20445;-74
2023/01/21 06:35:21;;;;;;;10.10;6.73;;;-0.60;1.00;;;;;;5097053;28;20440;-75
2023/01/21 06:37:47;;;;;;;6.17;3.70;;;-0.70;1.00;;;;;;5097776;28;20440;-75
2023/01/21 06:40:15;;;;;;;20.57;5.10;;;-0.60;1.00;;;;;;5096794;28;20461;-75
2023/01/21 06:42:46;;;;;;;8.33;4.37;;;-0.40;1.00;;;;;;5097760;28;20463;-76
2023/01/21 06:45:13;;;;;;;8.67;6.13;;;-0.40;1.00;;;;;;5097675;28;20526;-76
2023/01/21 06:47:41;;;;;;;4.60;4.13;;;-0.50;99.90;;;;;;5097016;28;20457;-75
2023/01/21 06:50:09;;;;;;;5.97;4.20;;;-0.50;1.00;;;;;;5096968;28;20495;-75
2023/01/21 06:52:37;;;;;;;9.23;4.43;;;-0.60;99.90;;;;;;5096892;28;20881;-75
2023/01/21 06:55:05;;;;;;;7.37;6.10;;;-0.50;99.90;;;;;;5083632;28;20920;-75
2023/01/21 06:57:32;;;;;;;5.13;3.93;;;-0.90;99.90;;;;;;5096750;28;20445;-75
2023/01/21 07:00:00;;;;;;;4.67;3.87;;;-0.80;1.00;;;;;;5096819;28;20537;-75
2023/01/21 07:02:27;;;;;;;7.47;5.83;;;-0.70;99.90;;;;;;5096246;28;20453;-76
2023/01/21 07:04:54;;;;;;;4.93;3.80;;;-0.90;99.90;;;;;;5097146;28;20441;-75
2023/01/21 07:07:20;;;;;;;6.47;5.07;;;-0.60;99.90;;;;;;5096476;28;20447;-76
2023/01/21 07:09:47;;;;;;;9.00;6.00;;;-0.80;1.00;;;;;;5096786;28;20448;-75
2023/01/21 07:12:14;;;;;;;12.00;7.93;;;-0.70;1.00;;;;;;5097079;28;20449;-76
2023/01/21 07:14:41;;;;;;;8.97;5.27;;;-0.70;1.00;;;;;;5096696;28;20456;-76
2023/01/21 07:17:09;;;;;;;11.03;5.10;;;-0.60;1.00;;;;;;5094737;28;20449;-77
2023/01/21 07:19:36;;;;;;;7.10;6.40;;;-0.50;99.90;;;;;;5093176;28;20445;-76
2023/01/21 07:22:02;;;;;;;5.30;4.37;;;-0.50;1.00;;;;;;5093737;28;20444;-75
2023/01/21 07:24:29;;;;;;;7.90;5.63;;;-0.80;99.90;;;;;;5093360;28;20456;-76
2023/01/21 07:26:56;;;;;;;10.53;6.30;;;-0.70;1.00;;;;;;5093612;28;20442;-75
2023/01/21 07:29:23;;;;;;;10.33;6.00;;;-0.50;1.00;;;;;;5093163;28;20453;-75
2023/01/21 07:31:50;;;;;;;9.70;6.60;;;-0.50;1.00;;;;;;5093818;28;20476;-75
2023/01/21 07:34:18;;;;;;;7.00;6.30;;;-0.40;99.90;;;;;;5092929;28;20445;-71
2023/01/21 07:36:45;;;;;;;10.87;5.03;;;-0.40;99.90;;;;;;5093322;28;20450;-76
2023/01/21 07:39:12;;;;;;;10.23;7.93;;;-0.30;1.00;;;;;;5092949;28;20460;-76
2023/01/21 07:41:39;;;;;;;7.20;5.73;;;-0.50;13.60;;;;;;5089891;28;20955;-76
2023/01/21 07:44:06;;;;;;;9.10;6.83;;;-0.50;99.90;;;;;;5084522;28;20488;-74
2023/01/21 07:46:33;;;;;;;11.50;6.70;;;-0.50;1.00;;;;;;5092588;28;20455;-76
2023/01/21 07:49:00;;;;;;;10.63;7.20;;;-0.40;99.90;;;;;;5093289;28;20797;-75
2023/01/21 07:51:28;;;;;;;10.83;6.47;;;-0.50;99.90;;;;;;5084325;28;20482;-75
2023/01/21 07:53:55;;;;;;;11.10;5.73;;;;;;;;;;5086763;28;20438;-75
2023/01/21 07:56:24;;;;;;;12.80;6.97;;;;;;;;;;5092891;28;20849;-75
2023/01/21 07:58:51;;;;;;;10.63;4.10;;;;;;;;;;5093159;28;20449;-76
2023/01/21 08:01:18;;;;;;;7.30;6.10;;;;;;;;;;5092358;28;20450;-74
2023/01/21 08:03:45;;;;;;;13.80;7.70;;;;;;;;;;5091268;28;20447;-76
2023/01/21 08:06:12;;;;;;;10.10;6.93;;;;;;;;;;5092881;28;20952;-75
2023/01/21 08:08:41;;;;;;;12.97;6.53;;;;;;;;;;5092226;28;20469;-73
2023/01/21 08:11:08;;;;;;;13.17;8.30;;;;;;;;;;5092939;28;20488;-76
2023/01/21 08:13:35;;;;;;;10.87;6.70;;;;;;;;;;5092204;28;20923;-75
2023/01/21 08:16:03;;;;;;;11.53;5.70;;;;;;;;;;5093038;28;20462;-76
2023/01/21 08:18:30;;;;;;;11.20;6.20;;;;;;;;;;5091948;28;20450;-75
2023/01/21 08:20:57;;;;;;;11.37;4.60;;;;;;;;;;5092841;28;20442;-76
2023/01/21 08:23:25;;;;;;;6.50;5.50;;;;;;;;;;5092324;28;20455;-75
2023/01/21 08:25:53;;;;;;;10.50;6.97;;;;;;;;;;5092548;28;20445;-75
2023/01/21 08:28:21;;;;;;;16.33;4.97;;;;;;;;;;5091574;28;20450;-75
2023/01/21 08:30:48;;;;;;;10.60;6.63;;;;;;;;;;5092411;28;20481;-75
2023/01/21 08:33:15;;;;;;;9.67;5.63;;;;;;;;;;5092443;28;20812;-76
2023/01/21 08:35:42;;;;;;;7.67;4.90;;;;;;;;;;5087558;28;20447;-76
2023/01/21 08:38:09;;;;;;;11.70;5.63;;;-0.50;99.90;;;;;;5085144;28;20449;-76
2023/01/21 08:40:36;;;;;;;7.97;5.93;;;-0.40;99.90;;;;;;5091030;28;20441;-76
2023/01/21 08:43:06;;;;;;;14.80;5.40;;;-0.20;99.90;;;;;;5089946;28;20932;-76
2023/01/21 08:45:33;;;;;;;14.00;6.03;;;-0.20;99.90;;;;;;5091622;28;20580;-75
2023/01/21 08:48:02;;;;;;;12.13;6.27;;;0.00;99.90;;;;;;5084554;28;20442;-75
2023/01/21 08:50:29;;;;;;;13.03;8.57;;;-0.10;1.00;;;;;;5091536;28;20450;-76
2023/01/21 08:52:56;;;;;;;8.70;5.73;;;0.00;1.00;;;;;;5091745;28;20456;-77
2023/01/21 08:55:25;;;;;;;8.70;5.60;;;0.00;99.90;;;;;;5091211;28;20450;-80
2023/01/21 08:57:53;;;;;;;11.30;7.10;;;-0.10;99.90;;;;;;5091038;28;20453;-75
2023/01/21 09:00:22;;;;;;;10.33;5.07;;;0.10;99.90;;;;;;5091711;28;20450;-76
2023/01/21 09:02:49;;;;;;;12.73;7.00;;;0.00;99.90;;;;;;5091634;28;20956;-75
2023/01/21 09:05:16;;;;;;;11.97;6.93;;;0.00;99.90;;;;;;5091685;28;20443;-75
2023/01/21 09:07:44;;;;;;;12.87;6.40;;;0.10;99.90;;;;;;5091138;28;20541;-75
2023/01/21 09:10:11;;;;;;;7.60;5.53;;;0.20;1.00;;;;;;5091566;28;20456;-75
2023/01/21 09:12:40;;;;;;;12.27;5.80;;;0.40;1.00;;;;;;5090697;28;20507;-76
2023/01/21 09:15:07;;;;;;;8.97;6.07;;;0.40;1.00;;;;;;5090556;28;20458;-75
2023/01/21 09:17:37;;;;;;;7.47;6.60;;;0.60;1.00;;;;;;5088927;28;20448;-77
2023/01/21 09:20:04;;;;;;;7.63;4.70;;;0.40;1.00;;;;;;5081351;28;20502;-77
2023/01/21 09:22:31;;;;;;;7.30;4.97;;;0.30;1.00;;;;;;5089841;28;20449;-76
2023/01/21 09:24:58;;;;;;;13.27;6.60;;;0.30;1.00;;;;;;5091678;28;20443;-79
2023/01/21 09:27:26;;;;;;;11.03;7.83;;;0.20;1.00;;;;;;5087339;28;20440;-75
2023/01/21 09:29:54;;;;;;;8.13;5.00;;;0.30;99.90;;;;;;5091683;28;20534;-75
2023/01/21 09:32:20;;;;;;;8.37;4.43;;;0.40;1.00;;;;;;5090780;28;21038;-76
2023/01/21 09:34:49;;;;;;;9.77;4.77;;;0.50;1.00;;;;;;5091536;28;20790;-74
2023/01/21 09:37:15;;;;;;;11.67;6.57;;;0.50;1.00;;;;;;5091410;28;20451;-75
2023/01/21 09:39:42;;;;;;;9.93;5.17;;;0.60;1.00;;;;;;5090734;28;20454;-75
2023/01/21 09:42:18;;;;;;;21.13;5.83;;;0.60;1.00;;;;;;5090922;28;20459;-74
2023/01/21 09:44:47;;;;;;;8.40;6.50;;;0.70;1.00;;;;;;5085932;28;20471;-75
2023/01/21 09:47:18;;;;;;;7.43;4.63;;;;;;;;;;5091429;28;20847;-75
2023/01/21 09:49:48;;;;;;;9.20;5.80;;;;;;;;;;5091030;28;20436;-77
2023/01/21 09:52:21;;;;;;;15.70;6.80;;;;;;;;;;5090967;28;20505;-75
2023/01/21 09:54:49;;;;;;;8.30;6.77;;;;;;;;;;5089021;28;20433;-75
2023/01/21 09:57:30;;;;;;;11.40;4.87;;;;;;;;;;5091346;28;20461;-76
2023/01/21 10:00:04;;;;;;;10.13;6.97;;;;;;;;;;5090935;28;20462;-76
2023/01/21 10:02:36;;;;;;;6.97;4.63;;;;;;;;;;5090539;28;20471;-74
2023/01/21 10:05:21;;;;;;;10.70;6.10;;;;;;;;;;5090420;28;20471;-75
2023/01/21 10:07:54;;;;;;;6.97;6.07;;;;;;;;;;5088883;28;20899;-76
2023/01/21 10:10:23;;;;;;;10.17;6.50;;;;;;;;;;5089707;28;20943;-78
2023/01/21 10:12:59;;;;;;;9.67;6.77;;;;;;;;;;5090816;28;20488;-76
2023/01/21 10:15:31;;;;;;;5.40;3.83;;;;;;;;;;5090138;28;20446;-75
2023/01/21 10:18:01;;;;;;;7.23;5.20;;;;;;;;;;5090657;28;20879;-76
2023/01/21 10:20:29;;;;;;;9.93;5.80;;;;;;;;;;5089288;28;20447;-75
2023/01/21 10:23:03;;;;;;;10.03;5.90;;;0.70;99.90;;;;;;5090683;28;20459;-74
2023/01/21 10:25:31;;;;;;;10.83;6.83;;;0.80;99.90;;;;;;5090185;28;20811;-74
2023/01/21 10:28:02;;;;;;;10.83;6.57;;;0.70;99.90;;;;;;5090644;28;20459;-74
2023/01/21 10:30:34;;;;;;;5.40;4.13;;;0.80;99.90;;;;;;5089599;28;20452;-74
2023/01/21 10:33:01;;;;;;;7.60;5.00;;;0.70;99.90;;;;;;5090995;28;20478;-75
2023/01/21 10:35:46;;;;;;;10.87;4.97;;;0.70;1.00;;;;;;5090417;28;20444;-74
2023/01/21 10:38:23;;;;;;;7.10;5.33;;;0.60;99.90;;;;;;5091102;28;20455;-75
2023/01/21 10:40:57;;;;;;;7.27;5.67;;;0.60;1.00;;;;;;5090564;28;20439;-75
2023/01/21 10:43:36;;;;;;;10.37;7.20;;;0.60;1.00;;;;;;5090424;28;20775;-74
2023/01/21 10:46:14;;;;;;;10.10;5.33;;;0.80;1.00;;;;;;5070397;28;20984;-75
2023/01/21 10:48:48;;;;;;;9.70;6.40;;;1.00;99.90;;;;;;5070385;28;20448;-74
2023/01/21 10:51:20;;;;;;;9.13;3.87;;;1.10;39.20;;;;;;5070397;28;20480;-75
2023/01/21 10:53:55;;;;;;;5.80;5.27;;;1.00;1.00;;;;;;5074411;28;20470;-74
2023/01/21 10:56:32;;;;;;;10.67;6.40;;;0.80;99.90;;;;;;5073227;28;20474;-74
2023/01/21 10:59:04;;;;;;;9.20;5.77;;;1.00;1.00;;;;;;5073987;28;20533;-74
2023/01/21 11:01:35;;;;;;;7.57;5.40;;;1.20;99.90;;;;;;5073195;28;20437;-75
2023/01/21 11:04:07;;;;;;;20.50;5.97;;;1.30;1.00;;;;;;5074292;28;20446;-74
2023/01/21 11:06:36;;;;;;;10.80;6.10;;;1.30;1.00;;;;;;5060960;28;20445;-74
2023/01/21 11:09:08;;;;;;;7.53;6.63;;;1.40;22.70;;;;;;5074030;28;20495;-75
2023/01/21 11:11:36;;;;;;;12.37;6.90;;;1.40;1.00;;;;;;5072425;28;20525;-76
2023/01/21 11:14:03;;;;;;;6.27;5.17;;;1.40;1.00;;;;;;5073527;28;20456;-77
2023/01/21 11:16:35;;;;;;;6.50;4.50;;;1.20;1.00;;;;;;5073035;28;20929;-78
2023/01/21 11:19:03;;;;;;;13.50;7.07;;;1.10;1.00;;;;;;5071881;28;20456;-79
2023/01/21 11:21:30;;;;;;;17.67;5.83;;;1.10;99.90;;;;;;5072292;28;20487;-79
2023/01/21 11:23:58;;;;;;;8.40;5.40;;;1.20;99.90;;;;;;5073706;28;20464;-77
2023/01/21 11:26:29;;;;;;;6.90;4.50;;;1.20;27.90;;;;;;5073162;28;20774;-78
2023/01/21 11:29:14;;;;;;;8.93;6.03;;;1.10;99.90;;;;;;5073290;28;20457;-77
2023/01/21 11:31:43;;;;;;;10.80;4.13;;;1.20;99.90;;;;;;5072562;28;20469;-79
2023/01/21 11:34:14;;;;;;;10.00;6.17;;;1.00;99.90;;;;;;5073495;28;20924;-79
2023/01/21 11:36:54;;;;;;;15.17;5.40;;;0.90;99.90;;;;;;5072400;28;20441;-73
2023/01/21 11:39:24;;;;;;;7.70;5.13;;;1.00;1.00;;;;;;5072643;28;20951;-76
2023/01/21 11:41:54;;;;;;;11.50;4.70;;;0.80;1.00;;;;;;5073499;28;20826;-76
2023/01/21 11:44:22;;;;;;;5.80;3.97;;;1.10;1.00;;;;;;5079372;28;20479;-76
2023/01/21 11:46:49;;;;;;;8.83;5.53;;;1.00;1.00;;;;;;5093136;28;20444;-76
2023/01/21 11:49:22;;;;;;;7.07;3.97;;;1.10;99.90;;;;;;5093642;28;20806;-76
2023/01/21 11:51:49;;;;;;;10.10;4.40;;;1.20;99.90;;;;;;5093432;28;20488;-76
2023/01/21 11:54:17;;;;;;;7.27;4.30;;;1.30;99.90;;;;;;5093641;28;20457;-77
2023/01/21 11:56:55;;;;;;;11.27;5.70;;;1.30;99.90;;;;;;5092925;28;20455;-76
2023/01/21 11:59:26;;;;;;;6.23;4.77;;;1.30;25.40;;;;;;5092391;28;20964;-75
2023/01/21 12:01:57;;;;;;;8.10;3.90;;;1.20;1.00;;;;;;5093141;28;20464;-76
2023/01/21 12:04:25;;;;;;;9.87;4.97;;;1.20;38.60;;;;;;5091959;28;20782;-76
2023/01/21 12:06:56;;;;;;;7.53;4.93;;;1.30;1.00;;;;;;5093172;28;20456;-76
2023/01/21 12:09:24;;;;;;;8.13;5.30;;;1.10;28.10;;;;;;5092584;28;20505;-76
2023/01/21 12:12:24;;;;;;;9.57;5.17;;;1.30;1.00;;;;;;5093002;28;20591;-75
2023/01/21 12:14:54;;;;;;;6.60;4.63;;;1.20;31.60;;;;;;5081920;28;20456;-76
2023/01/21 12:17:35;;;;;;;15.70;5.93;;;1.30;1.00;;;;;;5091631;28;20916;-75
2023/01/21 12:20:20;;;;;;;10.70;4.30;;;1.30;99.90;;;;;;5093028;28;20444;-77
2023/01/21 12:23:02;;;;;;;7.73;4.40;;;;;;;;;;5080725;28;20939;-75
2023/01/21 12:25:39;;;;;;;12.40;7.13;;;;;;;;;;5091864;28;20454;-75
2023/01/21 12:28:21;;;;;;;12.80;5.40;;;;;;;;;;5092226;28;20445;-77
2023/01/21 12:30:51;;;;;;;8.07;4.30;;;;;;;;;;5079722;28;20500;-76
2023/01/21 12:33:20;;;;;;;6.03;4.70;;;;;;;;;;5091970;28;20483;-76
2023/01/21 12:35:49;;;;;;;8.67;6.57;;;;;;;;;;5092585;28;20460;-75
2023/01/21 12:38:18;;;;;;;7.53;4.53;;;;;;;;;;5091927;28;20622;-76
2023/01/21 12:40:47;;;;;;;7.73;5.10;;;;;;;;;;5091746;28;20928;-77
2023/01/21 12:43:17;;;;;;;6.33;5.63;;;;;;;;;;5092616;28;20475;-77
2023/01/21 12:45:47;;;;;;;11.40;4.70;;;;;;;;;;5092577;28;20983;-77
2023/01/21 12:48:16;;;;;;;12.50;6.80;;;;;;;;;;5091989;28;20452;-76
2023/01/21 12:50:46;;;;;;;9.10;4.57;;;;;;;;;;5092519;28;20452;-77
2023/01/21 12:53:16;;;;;;;11.20;5.87;;;;;;;;;;5092317;28;20490;-77
2023/01/21 12:55:58;;;;;;;8.43;5.00;;;;;;;;;;5092228;28;20452;-77
2023/01/21 12:58:27;;;;;;;12.40;6.03;;;;;;;;;;5078041;28;20456;-77
2023/01/21 13:00:56;;;;;;;12.10;4.50;;;;;;;;;;5091713;28;20451;-75
2023/01/21 13:03:27;;;;;;;9.40;4.50;;;;;;;;;;5091228;28;20448;-76
2023/01/21 13:05:56;;;;;;;5.60;3.53;;;;;;;;;;5091668;28;20452;-76
2023/01/21 13:08:30;;;;;;;11.77;5.10;;;;;;;;;;5091072;28;20459;-76
2023/01/21 13:11:01;;;;;;;8.03;4.10;;;;;;;;;;5091739;28;20523;-77
2023/01/21 13:13:31;;;;;;;7.80;4.10;;;;;;;;;;5091591;28;20580;-77
2023/01/21 13:16:01;;;;;;;8.10;4.93;;;;;;;;;;5090628;28;20452;-77
2023/01/21 13:18:31;;;;;;;7.40;4.10;;;;;;;;;;5090576;28;20463;-76
2023/01/21 13:21:01;;;;;;;9.27;4.87;;;;;;;;;;5091317;28;20923;-76
2023/01/21 13:23:30;;;;;;;9.63;5.60;;;;;;;;;;5091097;28;20785;-75
2023/01/21 13:25:59;;;;;;;6.30;4.13;;;;;;;;;;5091443;28;20521;-75